sensor_id;sensor_type;location;lat;lon;timestamp;P1;durP1;ratioP1;P2;durP2;ratioP2
3953;SDS011;1991;48.682;9.030;2024-02-14T00:01:03;4.07;;;2.30;;
3953;SDS011;1991;48.682;9.030;2024-02-14T00:03:29;3.10;;;2.30;;
3953;SDS011;1991;48.682;9.030;2024-02-14T00:05:54;6.57;;;2.80;;
3953;SDS011;1991;48.682;9.030;2024-02-14T00:08:22;4.20;;;2.90;;
3953;SDS011;1991;48.682;9.030;2024-02-14T00:10:48;5.20;;;2.50;;
3953;SDS011;1991;48.682;9.030;2024-02-14T00:13:13;5.63;;;2.43;;
3953;SDS011;1991;48.682;9.030;2024-02-14T00:15:39;6.87;;;2.57;;
3953;SDS011;1991;48.682;9.030;2024-02-14T00:18:05;4.07;;;2.50;;
3953;SDS011;1991;48.682;9.030;2024-02-14T00:20:31;5.00;;;2.70;;
3953;SDS011;1991;48.682;9.030;2024-02-14T00:22:57;5.07;;;2.50;;
3953;SDS011;1991;48.682;9.030;2024-02-14T00:25:23;3.50;;;2.40;;
3953;SDS011;1991;48.682;9.030;2024-02-14T00:27:48;5.97;;;3.37;;
3953;SDS011;1991;48.682;9.030;2024-02-14T00:30:14;6.03;;;2.73;;
3953;SDS011;1991;48.682;9.030;2024-02-14T00:32:40;4.23;;;2.37;;
3953;SDS011;1991;48.682;9.030;2024-02-14T00:35:06;8.90;;;2.93;;
3953;SDS011;1991;48.682;9.030;2024-02-14T00:37:32;6.47;;;2.53;;
3953;SDS011;1991;48.682;9.030;2024-02-14T00:39:59;5.57;;;3.07;;
3953;SDS011;1991;48.682;9.030;2024-02-14T00:42:24;7.73;;;2.93;;
3953;SDS011;1991;48.682;9.030;2024-02-14T00:44:50;6.10;;;2.60;;
3953;SDS011;1991;48.682;9.030;2024-02-14T00:47:16;5.63;;;3.50;;
3953;SDS011;1991;48.682;9.030;2024-02-14T00:49:42;5.10;;;2.90;;
3953;SDS011;1991;48.682;9.030;2024-02-14T00:52:07;4.50;;;2.67;;
3953;SDS011;1991;48.682;9.030;2024-02-14T00:54:34;7.13;;;3.63;;
3953;SDS011;1991;48.682;9.030;2024-02-14T00:57:00;5.23;;;2.93;;
3953;SDS011;1991;48.682;9.030;2024-02-14T00:59:25;6.30;;;3.00;;
3953;SDS011;1991;48.682;9.030;2024-02-14T01:01:51;6.37;;;3.13;;
3953;SDS011;1991;48.682;9.030;2024-02-14T01:04:17;6.83;;;2.90;;
3953;SDS011;1991;48.682;9.030;2024-02-14T01:06:43;4.77;;;3.10;;
3953;SDS011;1991;48.682;9.030;2024-02-14T01:09:08;7.53;;;2.93;;
3953;SDS011;1991;48.682;9.030;2024-02-14T01:11:34;7.60;;;3.00;;
3953;SDS011;1991;48.682;9.030;2024-02-14T01:14:00;5.63;;;2.80;;
3953;SDS011;1991;48.682;9.030;2024-02-14T01:16:26;4.97;;;2.63;;
3953;SDS011;1991;48.682;9.030;2024-02-14T01:18:52;5.63;;;3.07;;
3953;SDS011;1991;48.682;9.030;2024-02-14T01:21:18;7.70;;;3.43;;
3953;SDS011;1991;48.682;9.030;2024-02-14T01:23:43;4.13;;;2.80;;
3953;SDS011;1991;48.682;9.030;2024-02-14T01:26:09;6.27;;;3.33;;
3953;SDS011;1991;48.682;9.030;2024-02-14T01:28:35;6.73;;;3.10;;
3953;SDS011;1991;48.682;9.030;2024-02-14T01:31:00;5.93;;;3.17;;
3953;SDS011;1991;48.682;9.030;2024-02-14T01:33:26;5.30;;;2.97;;
3953;SDS011;1991;48.682;9.030;2024-02-14T01:35:52;10.60;;;3.63;;
3953;SDS011;1991;48.682;9.030;2024-02-14T01:38:18;6.17;;;3.43;;
3953;SDS011;1991;48.682;9.030;2024-02-14T01:40:43;6.70;;;3.53;;
3953;SDS011;1991;48.682;9.030;2024-02-14T01:43:10;6.80;;;4.27;;
3953;SDS011;1991;48.682;9.030;2024-02-14T01:45:35;6.07;;;3.30;;
3953;SDS011;1991;48.682;9.030;2024-02-14T01:48:02;10.00;;;3.70;;
3953;SDS011;1991;48.682;9.030;2024-02-14T01:50:28;6.87;;;2.90;;
3953;SDS011;1991;48.682;9.030;2024-02-14T01:52:55;5.63;;;3.10;;
3953;SDS011;1991;48.682;9.030;2024-02-14T01:55:24;4.20;;;2.97;;
3953;SDS011;1991;48.682;9.030;2024-02-14T01:57:51;4.80;;;2.97;;
3953;SDS011;1991;48.682;9.030;2024-02-14T02:00:18;5.70;;;3.17;;
3953;SDS011;1991;48.682;9.030;2024-02-14T02:02:44;6.97;;;2.90;;
3953;SDS011;1991;48.682;9.030;2024-02-14T02:05:11;5.73;;;3.03;;
3953;SDS011;1991;48.682;9.030;2024-02-14T02:07:38;3.57;;;2.43;;
3953;SDS011;1991;48.682;9.030;2024-02-14T02:10:08;4.90;;;2.70;;
3953;SDS011;1991;48.682;9.030;2024-02-14T02:12:35;5.00;;;2.70;;
3953;SDS011;1991;48.682;9.030;2024-02-14T02:15:03;5.40;;;2.90;;
3953;SDS011;1991;48.682;9.030;2024-02-14T02:17:32;6.10;;;2.97;;
3953;SDS011;1991;48.682;9.030;2024-02-14T02:20:01;5.33;;;2.90;;
3953;SDS011;1991;48.682;9.030;2024-02-14T02:22:27;8.03;;;2.77;;
3953;SDS011;1991;48.682;9.030;2024-02-14T02:24:57;4.77;;;2.73;;
3953;SDS011;1991;48.682;9.030;2024-02-14T02:27:22;4.83;;;2.63;;
3953;SDS011;1991;48.682;9.030;2024-02-14T02:29:48;6.57;;;2.70;;
3953;SDS011;1991;48.682;9.030;2024-02-14T02:32:13;4.03;;;2.67;;
3953;SDS011;1991;48.682;9.030;2024-02-14T02:34:41;5.40;;;2.90;;
3953;SDS011;1991;48.682;9.030;2024-02-14T02:37:06;6.50;;;3.10;;
3953;SDS011;1991;48.682;9.030;2024-02-14T02:39:34;4.20;;;3.03;;
3953;SDS011;1991;48.682;9.030;2024-02-14T02:42:01;8.13;;;2.73;;
3953;SDS011;1991;48.682;9.030;2024-02-14T02:44:28;5.47;;;3.10;;
3953;SDS011;1991;48.682;9.030;2024-02-14T02:46:54;5.13;;;2.97;;
3953;SDS011;1991;48.682;9.030;2024-02-14T02:49:20;7.27;;;2.70;;
3953;SDS011;1991;48.682;9.030;2024-02-14T02:51:46;4.50;;;2.43;;
3953;SDS011;1991;48.682;9.030;2024-02-14T02:54:13;5.23;;;2.97;;
3953;SDS011;1991;48.682;9.030;2024-02-14T02:56:38;5.37;;;2.83;;
3953;SDS011;1991;48.682;9.030;2024-02-14T02:59:05;4.13;;;2.50;;
3953;SDS011;1991;48.682;9.030;2024-02-14T03:01:37;5.40;;;2.50;;
3953;SDS011;1991;48.682;9.030;2024-02-14T03:04:03;6.60;;;2.83;;
3953;SDS011;1991;48.682;9.030;2024-02-14T03:06:29;6.20;;;2.80;;
3953;SDS011;1991;48.682;9.030;2024-02-14T03:08:55;4.60;;;2.50;;
3953;SDS011;1991;48.682;9.030;2024-02-14T03:11:22;8.23;;;2.83;;
3953;SDS011;1991;48.682;9.030;2024-02-14T03:13:48;4.53;;;2.23;;
3953;SDS011;1991;48.682;9.030;2024-02-14T03:16:16;6.23;;;2.30;;
3953;SDS011;1991;48.682;9.030;2024-02-14T03:18:42;5.03;;;2.67;;
3953;SDS011;1991;48.682;9.030;2024-02-14T03:21:08;6.07;;;2.80;;
3953;SDS011;1991;48.682;9.030;2024-02-14T03:23:34;4.90;;;2.30;;
3953;SDS011;1991;48.682;9.030;2024-02-14T03:25:59;6.67;;;2.60;;
3953;SDS011;1991;48.682;9.030;2024-02-14T03:28:25;5.23;;;2.40;;
3953;SDS011;1991;48.682;9.030;2024-02-14T03:30:51;4.77;;;2.57;;
3953;SDS011;1991;48.682;9.030;2024-02-14T03:33:17;5.53;;;2.27;;
3953;SDS011;1991;48.682;9.030;2024-02-14T03:35:42;4.47;;;2.40;;
3953;SDS011;1991;48.682;9.030;2024-02-14T03:38:08;6.10;;;2.23;;
3953;SDS011;1991;48.682;9.030;2024-02-14T03:40:34;5.30;;;2.23;;
3953;SDS011;1991;48.682;9.030;2024-02-14T03:43:01;9.03;;;2.67;;
3953;SDS011;1991;48.682;9.030;2024-02-14T03:45:27;6.27;;;2.70;;
3953;SDS011;1991;48.682;9.030;2024-02-14T03:47:55;4.73;;;2.20;;
3953;SDS011;1991;48.682;9.030;2024-02-14T03:50:21;5.13;;;2.40;;
3953;SDS011;1991;48.682;9.030;2024-02-14T03:52:47;5.90;;;2.30;;
3953;SDS011;1991;48.682;9.030;2024-02-14T03:55:13;4.63;;;2.47;;
3953;SDS011;1991;48.682;9.030;2024-02-14T03:57:40;5.60;;;2.50;;
3953;SDS011;1991;48.682;9.030;2024-02-14T04:00:05;5.43;;;2.67;;
3953;SDS011;1991;48.682;9.030;2024-02-14T04:02:35;3.43;;;2.43;;
3953;SDS011;1991;48.682;9.030;2024-02-14T04:05:00;3.77;;;1.90;;
3953;SDS011;1991;48.682;9.030;2024-02-14T04:07:27;4.83;;;1.90;;
3953;SDS011;1991;48.682;9.030;2024-02-14T04:09:54;6.33;;;1.90;;
3953;SDS011;1991;48.682;9.030;2024-02-14T04:12:19;4.00;;;1.93;;
3953;SDS011;1991;48.682;9.030;2024-02-14T04:14:45;6.03;;;2.13;;
3953;SDS011;1991;48.682;9.030;2024-02-14T04:17:11;4.80;;;2.30;;
3953;SDS011;1991;48.682;9.030;2024-02-14T04:19:37;3.07;;;2.30;;
3953;SDS011;1991;48.682;9.030;2024-02-14T04:22:03;4.20;;;2.17;;
3953;SDS011;1991;48.682;9.030;2024-02-14T04:24:29;7.30;;;2.70;;
3953;SDS011;1991;48.682;9.030;2024-02-14T04:26:54;4.40;;;2.17;;
3953;SDS011;1991;48.682;9.030;2024-02-14T04:29:22;5.40;;;2.40;;
3953;SDS011;1991;48.682;9.030;2024-02-14T04:31:48;4.97;;;2.00;;
3953;SDS011;1991;48.682;9.030;2024-02-14T04:34:14;5.87;;;2.10;;
3953;SDS011;1991;48.682;9.030;2024-02-14T04:36:40;4.27;;;1.73;;
3953;SDS011;1991;48.682;9.030;2024-02-14T04:39:05;4.97;;;1.70;;
3953;SDS011;1991;48.682;9.030;2024-02-14T04:41:32;2.90;;;1.63;;
3953;SDS011;1991;48.682;9.030;2024-02-14T04:44:02;3.70;;;2.13;;
3953;SDS011;1991;48.682;9.030;2024-02-14T04:46:32;4.17;;;1.73;;
3953;SDS011;1991;48.682;9.030;2024-02-14T04:48:58;5.97;;;1.73;;
3953;SDS011;1991;48.682;9.030;2024-02-14T04:51:23;4.73;;;1.90;;
3953;SDS011;1991;48.682;9.030;2024-02-14T04:53:49;3.83;;;1.83;;
3953;SDS011;1991;48.682;9.030;2024-02-14T04:56:14;3.10;;;1.40;;
3953;SDS011;1991;48.682;9.030;2024-02-14T04:58:40;3.73;;;1.73;;
3953;SDS011;1991;48.682;9.030;2024-02-14T05:01:05;3.23;;;1.63;;
3953;SDS011;1991;48.682;9.030;2024-02-14T05:03:32;5.77;;;1.90;;
3953;SDS011;1991;48.682;9.030;2024-02-14T05:05:57;5.53;;;1.80;;
3953;SDS011;1991;48.682;9.030;2024-02-14T05:08:24;4.60;;;2.00;;
3953;SDS011;1991;48.682;9.030;2024-02-14T05:10:49;2.40;;;1.60;;
3953;SDS011;1991;48.682;9.030;2024-02-14T05:13:15;3.73;;;1.90;;
3953;SDS011;1991;48.682;9.030;2024-02-14T05:15:40;4.00;;;1.80;;
3953;SDS011;1991;48.682;9.030;2024-02-14T05:18:06;4.87;;;2.00;;
3953;SDS011;1991;48.682;9.030;2024-02-14T05:20:32;3.90;;;1.70;;
3953;SDS011;1991;48.682;9.030;2024-02-14T05:22:58;5.43;;;1.73;;
3953;SDS011;1991;48.682;9.030;2024-02-14T05:25:23;2.33;;;1.43;;
3953;SDS011;1991;48.682;9.030;2024-02-14T05:27:49;3.47;;;1.50;;
3953;SDS011;1991;48.682;9.030;2024-02-14T05:30:14;4.70;;;1.50;;
3953;SDS011;1991;48.682;9.030;2024-02-14T05:32:40;5.03;;;1.30;;
3953;SDS011;1991;48.682;9.030;2024-02-14T05:35:06;3.13;;;1.40;;
3953;SDS011;1991;48.682;9.030;2024-02-14T05:37:32;3.03;;;1.10;;
3953;SDS011;1991;48.682;9.030;2024-02-14T05:39:58;3.70;;;1.23;;
3953;SDS011;1991;48.682;9.030;2024-02-14T05:42:24;5.17;;;1.30;;
3953;SDS011;1991;48.682;9.030;2024-02-14T05:44:49;5.43;;;1.60;;
3953;SDS011;1991;48.682;9.030;2024-02-14T05:47:16;3.23;;;1.23;;
3953;SDS011;1991;48.682;9.030;2024-02-14T05:49:43;3.67;;;1.40;;
3953;SDS011;1991;48.682;9.030;2024-02-14T05:52:09;2.47;;;1.17;;
3953;SDS011;1991;48.682;9.030;2024-02-14T05:54:34;3.10;;;1.37;;
3953;SDS011;1991;48.682;9.030;2024-02-14T05:57:00;4.63;;;1.40;;
3953;SDS011;1991;48.682;9.030;2024-02-14T05:59:27;2.93;;;1.27;;
3953;SDS011;1991;48.682;9.030;2024-02-14T06:01:53;3.10;;;1.30;;
3953;SDS011;1991;48.682;9.030;2024-02-14T06:04:18;3.87;;;1.33;;
3953;SDS011;1991;48.682;9.030;2024-02-14T06:06:44;3.73;;;1.23;;
3953;SDS011;1991;48.682;9.030;2024-02-14T06:09:09;3.13;;;1.27;;
3953;SDS011;1991;48.682;9.030;2024-02-14T06:11:36;3.23;;;1.10;;
3953;SDS011;1991;48.682;9.030;2024-02-14T06:14:04;2.90;;;1.50;;
3953;SDS011;1991;48.682;9.030;2024-02-14T06:16:31;3.03;;;1.40;;
3953;SDS011;1991;48.682;9.030;2024-02-14T06:18:57;3.77;;;1.10;;
3953;SDS011;1991;48.682;9.030;2024-02-14T06:21:22;4.03;;;1.50;;
3953;SDS011;1991;48.682;9.030;2024-02-14T06:23:48;3.83;;;1.30;;
3953;SDS011;1991;48.682;9.030;2024-02-14T06:26:13;4.90;;;1.73;;
3953;SDS011;1991;48.682;9.030;2024-02-14T06:28:39;3.17;;;1.53;;
3953;SDS011;1991;48.682;9.030;2024-02-14T06:31:05;4.77;;;1.50;;
3953;SDS011;1991;48.682;9.030;2024-02-14T06:33:30;3.17;;;1.43;;
3953;SDS011;1991;48.682;9.030;2024-02-14T06:35:56;2.67;;;1.20;;
3953;SDS011;1991;48.682;9.030;2024-02-14T06:38:21;4.07;;;1.33;;
3953;SDS011;1991;48.682;9.030;2024-02-14T06:40:47;4.77;;;1.77;;
3953;SDS011;1991;48.682;9.030;2024-02-14T06:43:13;3.57;;;1.50;;
3953;SDS011;1991;48.682;9.030;2024-02-14T06:45:38;4.83;;;1.33;;
3953;SDS011;1991;48.682;9.030;2024-02-14T06:48:04;2.93;;;1.37;;
3953;SDS011;1991;48.682;9.030;2024-02-14T06:50:30;2.30;;;1.17;;
3953;SDS011;1991;48.682;9.030;2024-02-14T06:52:56;4.37;;;1.50;;
3953;SDS011;1991;48.682;9.030;2024-02-14T06:55:25;2.90;;;1.60;;
3953;SDS011;1991;48.682;9.030;2024-02-14T06:57:51;4.67;;;1.67;;
3953;SDS011;1991;48.682;9.030;2024-02-14T07:00:17;4.83;;;1.57;;
3953;SDS011;1991;48.682;9.030;2024-02-14T07:02:43;4.33;;;1.70;;
3953;SDS011;1991;48.682;9.030;2024-02-14T07:05:12;3.27;;;1.30;;
3953;SDS011;1991;48.682;9.030;2024-02-14T07:07:39;2.57;;;1.50;;
3953;SDS011;1991;48.682;9.030;2024-02-14T07:10:05;4.07;;;1.50;;
3953;SDS011;1991;48.682;9.030;2024-02-14T07:12:31;2.67;;;1.50;;
3953;SDS011;1991;48.682;9.030;2024-02-14T07:14:57;3.00;;;1.33;;
3953;SDS011;1991;48.682;9.030;2024-02-14T07:17:23;2.00;;;1.10;;
3953;SDS011;1991;48.682;9.030;2024-02-14T07:19:48;3.27;;;1.40;;
3953;SDS011;1991;48.682;9.030;2024-02-14T07:22:15;1.87;;;1.00;;
3953;SDS011;1991;48.682;9.030;2024-02-14T07:24:41;3.60;;;1.40;;
3953;SDS011;1991;48.682;9.030;2024-02-14T07:27:07;3.07;;;1.30;;
3953;SDS011;1991;48.682;9.030;2024-02-14T07:29:33;4.40;;;1.57;;
3953;SDS011;1991;48.682;9.030;2024-02-14T07:32:01;2.50;;;1.37;;
3953;SDS011;1991;48.682;9.030;2024-02-14T07:34:27;2.50;;;1.17;;
3953;SDS011;1991;48.682;9.030;2024-02-14T07:36:53;2.60;;;1.40;;
3953;SDS011;1991;48.682;9.030;2024-02-14T07:39:18;2.77;;;1.23;;
3953;SDS011;1991;48.682;9.030;2024-02-14T07:41:44;3.87;;;1.20;;
3953;SDS011;1991;48.682;9.030;2024-02-14T07:44:09;2.90;;;1.33;;
3953;SDS011;1991;48.682;9.030;2024-02-14T07:46:35;3.07;;;1.17;;
3953;SDS011;1991;48.682;9.030;2024-02-14T07:49:01;2.10;;;1.40;;
3953;SDS011;1991;48.682;9.030;2024-02-14T07:51:26;3.13;;;1.23;;
3953;SDS011;1991;48.682;9.030;2024-02-14T07:53:53;3.03;;;1.30;;
3953;SDS011;1991;48.682;9.030;2024-02-14T07:56:19;3.00;;;1.37;;
3953;SDS011;1991;48.682;9.030;2024-02-14T07:58:45;3.30;;;2.10;;
3953;SDS011;1991;48.682;9.030;2024-02-14T08:01:11;3.73;;;1.80;;
3953;SDS011;1991;48.682;9.030;2024-02-14T08:03:36;3.90;;;1.50;;
3953;SDS011;1991;48.682;9.030;2024-02-14T08:06:02;5.77;;;2.10;;
3953;SDS011;1991;48.682;9.030;2024-02-14T08:08:27;2.57;;;1.40;;
3953;SDS011;1991;48.682;9.030;2024-02-14T08:10:53;3.73;;;1.37;;
3953;SDS011;1991;48.682;9.030;2024-02-14T08:13:19;2.73;;;1.33;;
3953;SDS011;1991;48.682;9.030;2024-02-14T08:15:45;3.43;;;1.20;;
3953;SDS011;1991;48.682;9.030;2024-02-14T08:18:11;3.30;;;1.47;;
3953;SDS011;1991;48.682;9.030;2024-02-14T08:20:37;11.37;;;3.30;;
3953;SDS011;1991;48.682;9.030;2024-02-14T08:23:03;5.00;;;1.60;;
3953;SDS011;1991;48.682;9.030;2024-02-14T08:25:29;3.63;;;1.70;;
3953;SDS011;1991;48.682;9.030;2024-02-14T08:27:55;5.17;;;2.67;;
3953;SDS011;1991;48.682;9.030;2024-02-14T08:30:21;5.30;;;1.93;;
3953;SDS011;1991;48.682;9.030;2024-02-14T08:32:46;2.73;;;1.73;;
3953;SDS011;1991;48.682;9.030;2024-02-14T08:35:12;2.43;;;1.47;;
3953;SDS011;1991;48.682;9.030;2024-02-14T08:37:38;6.07;;;1.70;;
3953;SDS011;1991;48.682;9.030;2024-02-14T08:40:05;4.07;;;1.60;;
3953;SDS011;1991;48.682;9.030;2024-02-14T08:42:32;2.33;;;1.30;;
3953;SDS011;1991;48.682;9.030;2024-02-14T08:44:59;3.30;;;0.90;;
3953;SDS011;1991;48.682;9.030;2024-02-14T08:47:24;3.07;;;0.83;;
3953;SDS011;1991;48.682;9.030;2024-02-14T08:49:51;2.00;;;0.83;;
3953;SDS011;1991;48.682;9.030;2024-02-14T08:52:17;2.07;;;1.03;;
3953;SDS011;1991;48.682;9.030;2024-02-14T08:54:43;2.23;;;0.87;;
3953;SDS011;1991;48.682;9.030;2024-02-14T08:57:09;3.07;;;1.03;;
3953;SDS011;1991;48.682;9.030;2024-02-14T08:59:35;2.57;;;1.17;;
3953;SDS011;1991;48.682;9.030;2024-02-14T09:02:00;2.27;;;1.07;;
3953;SDS011;1991;48.682;9.030;2024-02-14T09:04:26;2.00;;;1.10;;
3953;SDS011;1991;48.682;9.030;2024-02-14T09:06:52;2.40;;;1.00;;
3953;SDS011;1991;48.682;9.030;2024-02-14T09:09:18;2.27;;;0.90;;
3953;SDS011;1991;48.682;9.030;2024-02-14T09:11:44;2.37;;;1.07;;
3953;SDS011;1991;48.682;9.030;2024-02-14T09:14:11;3.50;;;1.33;;
3953;SDS011;1991;48.682;9.030;2024-02-14T09:16:37;4.83;;;1.27;;
3953;SDS011;1991;48.682;9.030;2024-02-14T09:19:03;2.50;;;1.10;;
3953;SDS011;1991;48.682;9.030;2024-02-14T09:21:32;3.80;;;1.20;;
3953;SDS011;1991;48.682;9.030;2024-02-14T09:24:01;2.80;;;0.90;;
3953;SDS011;1991;48.682;9.030;2024-02-14T09:26:28;3.07;;;1.00;;
3953;SDS011;1991;48.682;9.030;2024-02-14T09:28:54;2.03;;;0.90;;
3953;SDS011;1991;48.682;9.030;2024-02-14T09:31:20;3.13;;;1.27;;
3953;SDS011;1991;48.682;9.030;2024-02-14T09:33:49;3.13;;;1.07;;
3953;SDS011;1991;48.682;9.030;2024-02-14T09:36:15;1.33;;;0.83;;
3953;SDS011;1991;48.682;9.030;2024-02-14T09:38:41;2.07;;;0.90;;
3953;SDS011;1991;48.682;9.030;2024-02-14T09:41:28;3.43;;;1.20;;
3953;SDS011;1991;48.682;9.030;2024-02-14T09:43:58;3.07;;;1.07;;
3953;SDS011;1991;48.682;9.030;2024-02-14T09:46:24;2.17;;;0.80;;
3953;SDS011;1991;48.682;9.030;2024-02-14T09:48:52;1.60;;;0.70;;
3953;SDS011;1991;48.682;9.030;2024-02-14T09:51:19;1.80;;;1.00;;
3953;SDS011;1991;48.682;9.030;2024-02-14T09:53:46;2.67;;;1.23;;
3953;SDS011;1991;48.682;9.030;2024-02-14T09:56:12;1.93;;;0.97;;
3953;SDS011;1991;48.682;9.030;2024-02-14T09:58:39;2.40;;;1.00;;
3953;SDS011;1991;48.682;9.030;2024-02-14T10:01:06;2.97;;;1.03;;
3953;SDS011;1991;48.682;9.030;2024-02-14T10:03:32;1.10;;;0.70;;
3953;SDS011;1991;48.682;9.030;2024-02-14T10:05:59;1.93;;;0.90;;
3953;SDS011;1991;48.682;9.030;2024-02-14T10:08:24;1.97;;;1.20;;
3953;SDS011;1991;48.682;9.030;2024-02-14T10:10:51;1.50;;;1.00;;
3953;SDS011;1991;48.682;9.030;2024-02-14T10:13:17;3.40;;;0.97;;
3953;SDS011;1991;48.682;9.030;2024-02-14T10:15:42;2.95;;;1.08;;
3953;SDS011;1991;48.682;9.030;2024-02-14T10:18:08;5.18;;;1.73;;
3953;SDS011;1991;48.682;9.030;2024-02-14T10:20:34;1.85;;;1.00;;
3953;SDS011;1991;48.682;9.030;2024-02-14T10:23:05;1.55;;;0.88;;
3953;SDS011;1991;48.682;9.030;2024-02-14T10:25:36;3.72;;;0.90;;
3953;SDS011;1991;48.682;9.030;2024-02-14T10:28:04;1.92;;;1.05;;
3953;SDS011;1991;48.682;9.030;2024-02-14T10:30:33;2.47;;;1.00;;
3953;SDS011;1991;48.682;9.030;2024-02-14T10:32:59;3.15;;;0.80;;
3953;SDS011;1991;48.682;9.030;2024-02-14T10:35:25;3.35;;;0.98;;
3953;SDS011;1991;48.682;9.030;2024-02-14T10:37:53;2.20;;;0.90;;
3953;SDS011;1991;48.682;9.030;2024-02-14T10:40:25;1.38;;;1.00;;
3953;SDS011;1991;48.682;9.030;2024-02-14T10:42:57;1.95;;;0.80;;
3953;SDS011;1991;48.682;9.030;2024-02-14T10:45:24;2.72;;;1.00;;
3953;SDS011;1991;48.682;9.030;2024-02-14T10:47:50;2.35;;;0.90;;
3953;SDS011;1991;48.682;9.030;2024-02-14T10:50:17;2.97;;;1.00;;
3953;SDS011;1991;48.682;9.030;2024-02-14T10:52:49;1.70;;;1.10;;
3953;SDS011;1991;48.682;9.030;2024-02-14T10:55:18;1.25;;;0.82;;
3953;SDS011;1991;48.682;9.030;2024-02-14T10:57:48;1.23;;;0.80;;
3953;SDS011;1991;48.682;9.030;2024-02-14T11:00:15;2.78;;;0.70;;
3953;SDS011;1991;48.682;9.030;2024-02-14T11:02:43;1.38;;;0.77;;
3953;SDS011;1991;48.682;9.030;2024-02-14T11:05:12;1.25;;;0.65;;
3953;SDS011;1991;48.682;9.030;2024-02-14T11:07:45;1.48;;;0.70;;
3953;SDS011;1991;48.682;9.030;2024-02-14T11:10:18;1.88;;;0.60;;
3953;SDS011;1991;48.682;9.030;2024-02-14T11:12:46;2.22;;;0.90;;
3953;SDS011;1991;48.682;9.030;2024-02-14T11:17:43;1.67;;;0.90;;
3953;SDS011;1991;48.682;9.030;2024-02-14T11:20:12;1.20;;;0.60;;
3953;SDS011;1991;48.682;9.030;2024-02-14T11:22:39;2.35;;;0.82;;
3953;SDS011;1991;48.682;9.030;2024-02-14T11:25:14;1.95;;;0.70;;
3953;SDS011;1991;48.682;9.030;2024-02-14T11:27:46;0.80;;;0.50;;
3953;SDS011;1991;48.682;9.030;2024-02-14T11:30:14;0.93;;;0.70;;
3953;SDS011;1991;48.682;9.030;2024-02-14T11:32:40;1.70;;;0.85;;
3953;SDS011;1991;48.682;9.030;2024-02-14T11:35:10;0.88;;;0.55;;
3953;SDS011;1991;48.682;9.030;2024-02-14T11:37:37;1.83;;;0.63;;
3953;SDS011;1991;48.682;9.030;2024-02-14T11:40:03;1.45;;;0.90;;
3953;SDS011;1991;48.682;9.030;2024-02-14T11:42:32;1.77;;;0.75;;
3953;SDS011;1991;48.682;9.030;2024-02-14T11:44:58;1.35;;;0.70;;
3953;SDS011;1991;48.682;9.030;2024-02-14T11:47:23;2.05;;;0.60;;
3953;SDS011;1991;48.682;9.030;2024-02-14T11:49:50;0.50;;;0.40;;
3953;SDS011;1991;48.682;9.030;2024-02-14T11:52:15;0.70;;;0.50;;
3953;SDS011;1991;48.682;9.030;2024-02-14T11:54:48;1.65;;;0.63;;
3953;SDS011;1991;48.682;9.030;2024-02-14T11:57:16;0.60;;;0.57;;
3953;SDS011;1991;48.682;9.030;2024-02-14T11:59:43;0.95;;;0.60;;
3953;SDS011;1991;48.682;9.030;2024-02-14T12:02:11;1.20;;;0.60;;
3953;SDS011;1991;48.682;9.030;2024-02-14T12:04:37;0.80;;;0.40;;
3953;SDS011;1991;48.682;9.030;2024-02-14T12:07:03;0.68;;;0.40;;
3953;SDS011;1991;48.682;9.030;2024-02-14T12:09:29;3.28;;;0.68;;
3953;SDS011;1991;48.682;9.030;2024-02-14T12:11:55;1.00;;;0.50;;
3953;SDS011;1991;48.682;9.030;2024-02-14T12:14:22;0.52;;;0.50;;
3953;SDS011;1991;48.682;9.030;2024-02-14T12:16:49;2.75;;;0.65;;
3953;SDS011;1991;48.682;9.030;2024-02-14T12:19:15;1.13;;;0.50;;
3953;SDS011;1991;48.682;9.030;2024-02-14T12:21:41;0.60;;;0.50;;
3953;SDS011;1991;48.682;9.030;2024-02-14T12:24:12;2.00;;;0.35;;
3953;SDS011;1991;48.682;9.030;2024-02-14T12:26:42;1.95;;;0.50;;
3953;SDS011;1991;48.682;9.030;2024-02-14T12:29:08;1.23;;;0.57;;
3953;SDS011;1991;48.682;9.030;2024-02-14T12:31:36;2.78;;;0.75;;
3953;SDS011;1991;48.682;9.030;2024-02-14T12:34:02;4.22;;;0.40;;
3953;SDS011;1991;48.682;9.030;2024-02-14T12:36:29;0.28;;;0.28;;
3953;SDS011;1991;48.682;9.030;2024-02-14T12:38:58;2.35;;;0.60;;
3953;SDS011;1991;48.682;9.030;2024-02-14T12:41:27;1.30;;;0.68;;
3953;SDS011;1991;48.682;9.030;2024-02-14T12:43:54;0.28;;;0.20;;
3953;SDS011;1991;48.682;9.030;2024-02-14T12:46:21;0.82;;;0.40;;
3953;SDS011;1991;48.682;9.030;2024-02-14T12:48:47;1.35;;;0.40;;
3953;SDS011;1991;48.682;9.030;2024-02-14T12:51:15;0.77;;;0.55;;
3953;SDS011;1991;48.682;9.030;2024-02-14T12:53:41;0.75;;;0.45;;
3953;SDS011;1991;48.682;9.030;2024-02-14T12:56:07;1.02;;;0.47;;
3953;SDS011;1991;48.682;9.030;2024-02-14T12:58:33;1.38;;;0.70;;
3953;SDS011;1991;48.682;9.030;2024-02-14T13:00:59;0.75;;;0.50;;
3953;SDS011;1991;48.682;9.030;2024-02-14T13:03:25;1.88;;;0.52;;
3953;SDS011;1991;48.682;9.030;2024-02-14T13:05:52;1.67;;;0.70;;
3953;SDS011;1991;48.682;9.030;2024-02-14T13:08:20;1.02;;;0.57;;
3953;SDS011;1991;48.682;9.030;2024-02-14T13:10:46;2.50;;;1.00;;
3953;SDS011;1991;48.682;9.030;2024-02-14T13:13:12;2.10;;;0.50;;
3953;SDS011;1991;48.682;9.030;2024-02-14T13:15:39;1.45;;;0.50;;
3953;SDS011;1991;48.682;9.030;2024-02-14T13:18:05;1.13;;;0.50;;
3953;SDS011;1991;48.682;9.030;2024-02-14T13:20:31;7.47;;;2.25;;
3953;SDS011;1991;48.682;9.030;2024-02-14T13:22:57;0.52;;;0.22;;
3953;SDS011;1991;48.682;9.030;2024-02-14T13:25:23;0.65;;;0.50;;
3953;SDS011;1991;48.682;9.030;2024-02-14T13:27:48;1.58;;;0.43;;
3953;SDS011;1991;48.682;9.030;2024-02-14T13:30:14;0.98;;;0.60;;
3953;SDS011;1991;48.682;9.030;2024-02-14T13:32:40;0.85;;;0.52;;
3953;SDS011;1991;48.682;9.030;2024-02-14T13:35:05;0.43;;;0.43;;
3953;SDS011;1991;48.682;9.030;2024-02-14T13:37:32;0.52;;;0.40;;
3953;SDS011;1991;48.682;9.030;2024-02-14T13:39:58;0.88;;;0.45;;
3953;SDS011;1991;48.682;9.030;2024-02-14T13:42:23;1.75;;;0.50;;
3953;SDS011;1991;48.682;9.030;2024-02-14T13:44:49;0.45;;;0.38;;
3953;SDS011;1991;48.682;9.030;2024-02-14T13:47:17;0.50;;;0.30;;
3953;SDS011;1991;48.682;9.030;2024-02-14T13:49:46;0.90;;;0.47;;
3953;SDS011;1991;48.682;9.030;2024-02-14T13:52:12;0.85;;;0.28;;
3953;SDS011;1991;48.682;9.030;2024-02-14T13:54:38;0.45;;;0.40;;
3953;SDS011;1991;48.682;9.030;2024-02-14T13:57:03;1.10;;;0.40;;
3953;SDS011;1991;48.682;9.030;2024-02-14T13:59:29;0.93;;;0.43;;
3953;SDS011;1991;48.682;9.030;2024-02-14T14:01:55;0.95;;;0.50;;
3953;SDS011;1991;48.682;9.030;2024-02-14T14:04:20;0.68;;;0.40;;
3953;SDS011;1991;48.682;9.030;2024-02-14T14:06:46;0.88;;;0.30;;
3953;SDS011;1991;48.682;9.030;2024-02-14T14:09:12;0.45;;;0.40;;
3953;SDS011;1991;48.682;9.030;2024-02-14T14:11:38;0.85;;;0.35;;
3953;SDS011;1991;48.682;9.030;2024-02-14T14:14:04;0.90;;;0.40;;
3953;SDS011;1991;48.682;9.030;2024-02-14T14:16:30;0.75;;;0.50;;
3953;SDS011;1991;48.682;9.030;2024-02-14T14:18:58;1.27;;;0.60;;
3953;SDS011;1991;48.682;9.030;2024-02-14T14:21:23;1.55;;;0.50;;
3953;SDS011;1991;48.682;9.030;2024-02-14T14:23:49;0.55;;;0.38;;
3953;SDS011;1991;48.682;9.030;2024-02-14T14:26:15;1.77;;;0.60;;
3953;SDS011;1991;48.682;9.030;2024-02-14T14:28:40;0.93;;;0.45;;
3953;SDS011;1991;48.682;9.030;2024-02-14T14:31:07;1.40;;;0.50;;
3953;SDS011;1991;48.682;9.030;2024-02-14T14:33:36;0.82;;;0.57;;
3953;SDS011;1991;48.682;9.030;2024-02-14T14:36:03;0.93;;;0.43;;
3953;SDS011;1991;48.682;9.030;2024-02-14T14:38:31;2.80;;;1.02;;
3953;SDS011;1991;48.682;9.030;2024-02-14T14:40:57;0.80;;;0.50;;
3953;SDS011;1991;48.682;9.030;2024-02-14T14:43:25;0.77;;;0.30;;
3953;SDS011;1991;48.682;9.030;2024-02-14T14:45:50;2.03;;;0.47;;
3953;SDS011;1991;48.682;9.030;2024-02-14T14:48:18;1.38;;;0.63;;
3953;SDS011;1991;48.682;9.030;2024-02-14T14:50:43;1.60;;;0.50;;
3953;SDS011;1991;48.682;9.030;2024-02-14T14:53:09;1.30;;;0.60;;
3953;SDS011;1991;48.682;9.030;2024-02-14T14:55:50;0.93;;;0.40;;
3953;SDS011;1991;48.682;9.030;2024-02-14T14:58:18;0.75;;;0.32;;
3953;SDS011;1991;48.682;9.030;2024-02-14T15:00:44;1.75;;;0.47;;
3953;SDS011;1991;48.682;9.030;2024-02-14T15:03:09;0.50;;;0.38;;
3953;SDS011;1991;48.682;9.030;2024-02-14T15:05:38;0.60;;;0.40;;
3953;SDS011;1991;48.682;9.030;2024-02-14T15:08:07;1.67;;;0.40;;
3953;SDS011;1991;48.682;9.030;2024-02-14T15:10:33;0.85;;;0.38;;
3953;SDS011;1991;48.682;9.030;2024-02-14T15:13:00;0.43;;;0.43;;